sensor_id;sensor_type;location;lat;lon;timestamp;temperature;humidity
21540;DHT22;10931;52.164;5.518;2023-02-28T00:01:26;16.60;58.40
21540;DHT22;10931;52.164;5.518;2023-02-28T00:03:54;16.70;58.50
21540;DHT22;10931;52.164;5.518;2023-02-28T00:06:21;16.70;58.50
21540;DHT22;10931;52.164;5.518;2023-02-28T00:08:49;16.70;58.50
21540;DHT22;10931;52.164;5.518;2023-02-28T00:11:15;16.60;58.40
21540;DHT22;10931;52.164;5.518;2023-02-28T00:13:45;16.60;58.40
21540;DHT22;10931;52.164;5.518;2023-02-28T00:16:20;16.60;58.40
21540;DHT22;10931;52.164;5.518;2023-02-28T00:18:49;16.60;58.50
21540;DHT22;10931;52.164;5.518;2023-02-28T00:21:17;16.60;58.50
21540;DHT22;10931;52.164;5.518;2023-02-28T00:23:43;16.60;58.50
21540;DHT22;10931;52.164;5.518;2023-02-28T00:26:09;16.60;58.50
21540;DHT22;10931;52.164;5.518;2023-02-28T00:28:34;16.60;58.50
21540;DHT22;10931;52.164;5.518;2023-02-28T00:31:00;16.60;58.50
21540;DHT22;10931;52.164;5.518;2023-02-28T00:33:27;16.50;58.50
21540;DHT22;10931;52.164;5.518;2023-02-28T00:36:04;16.50;58.50
21540;DHT22;10931;52.164;5.518;2023-02-28T00:38:32;16.50;58.40
21540;DHT22;10931;52.164;5.518;2023-02-28T00:40:58;16.50;58.50
21540;DHT22;10931;52.164;5.518;2023-02-28T00:43:31;16.50;58.50
21540;DHT22;10931;52.164;5.518;2023-02-28T00:45:57;16.50;58.50
21540;DHT22;10931;52.164;5.518;2023-02-28T00:48:26;16.50;58.50
21540;DHT22;10931;52.164;5.518;2023-02-28T00:50:51;16.50;58.50
21540;DHT22;10931;52.164;5.518;2023-02-28T00:53:25;16.50;58.50
21540;DHT22;10931;52.164;5.518;2023-02-28T00:55:55;16.50;58.50
21540;DHT22;10931;52.164;5.518;2023-02-28T00:58:21;16.50;58.50
21540;DHT22;10931;52.164;5.518;2023-02-28T01:00:47;16.50;58.50
21540;DHT22;10931;52.164;5.518;2023-02-28T01:03:17;16.50;58.60
21540;DHT22;10931;52.164;5.518;2023-02-28T01:05:43;16.40;58.50
21540;DHT22;10931;52.164;5.518;2023-02-28T01:08:09;16.50;58.50
21540;DHT22;10931;52.164;5.518;2023-02-28T01:10:36;16.40;58.50
21540;DHT22;10931;52.164;5.518;2023-02-28T01:13:02;16.40;58.50
21540;DHT22;10931;52.164;5.518;2023-02-28T01:15:28;16.40;59.10
21540;DHT22;10931;52.164;5.518;2023-02-28T01:17:57;16.40;58.50
21540;DHT22;10931;52.164;5.518;2023-02-28T01:20:23;16.40;58.50
21540;DHT22;10931;52.164;5.518;2023-02-28T01:22:52;16.40;58.50
21540;DHT22;10931;52.164;5.518;2023-02-28T01:25:17;16.40;58.50
21540;DHT22;10931;52.164;5.518;2023-02-28T01:27:43;16.40;58.50
21540;DHT22;10931;52.164;5.518;2023-02-28T01:30:11;16.40;58.60
21540;DHT22;10931;52.164;5.518;2023-02-28T01:32:37;16.40;58.50
21540;DHT22;10931;52.164;5.518;2023-02-28T01:35:03;16.30;58.50
21540;DHT22;10931;52.164;5.518;2023-02-28T01:37:28;16.40;58.50
21540;DHT22;10931;52.164;5.518;2023-02-28T01:39:57;16.30;58.50
21540;DHT22;10931;52.164;5.518;2023-02-28T01:42:24;16.30;58.50
21540;DHT22;10931;52.164;5.518;2023-02-28T01:45:19;16.30;58.50
21540;DHT22;10931;52.164;5.518;2023-02-28T01:47:51;16.30;58.50
21540;DHT22;10931;52.164;5.518;2023-02-28T01:50:26;16.30;58.50
21540;DHT22;10931;52.164;5.518;2023-02-28T01:52:57;16.30;58.50
21540;DHT22;10931;52.164;5.518;2023-02-28T01:55:27;16.30;58.50
21540;DHT22;10931;52.164;5.518;2023-02-28T01:57:56;16.30;58.50
21540;DHT22;10931;52.164;5.518;2023-02-28T02:00:25;16.30;58.60
21540;DHT22;10931;52.164;5.518;2023-02-28T02:02:57;16.30;58.50
21540;DHT22;10931;52.164;5.518;2023-02-28T02:05:30;16.30;58.50
21540;DHT22;10931;52.164;5.518;2023-02-28T02:08:23;16.30;58.50
21540;DHT22;10931;52.164;5.518;2023-02-28T02:10:57;16.20;58.50
21540;DHT22;10931;52.164;5.518;2023-02-28T02:22:26;16.20;58.50
21540;DHT22;10931;52.164;5.518;2023-02-28T02:27:39;16.20;58.60
21540;DHT22;10931;52.164;5.518;2023-02-28T02:30:36;16.20;58.60
21540;DHT22;10931;52.164;5.518;2023-02-28T02:35:55;16.20;58.60
21540;DHT22;10931;52.164;5.518;2023-02-28T02:43:54;16.10;58.50
21540;DHT22;10931;52.164;5.518;2023-02-28T02:46:35;16.10;58.60
21540;DHT22;10931;52.164;5.518;2023-02-28T02:49:06;16.20;59.30
21540;DHT22;10931;52.164;5.518;2023-02-28T02:51:34;16.10;58.60
21540;DHT22;10931;52.164;5.518;2023-02-28T02:54:05;16.10;58.60
21540;DHT22;10931;52.164;5.518;2023-02-28T02:56:33;16.10;58.60
21540;DHT22;10931;52.164;5.518;2023-02-28T02:59:03;16.10;58.60
21540;DHT22;10931;52.164;5.518;2023-02-28T03:01:31;16.10;58.60
21540;DHT22;10931;52.164;5.518;2023-02-28T03:03:59;16.10;58.60
21540;DHT22;10931;52.164;5.518;2023-02-28T03:06:26;16.10;58.60
21540;DHT22;10931;52.164;5.518;2023-02-28T03:08:52;16.10;58.60
21540;DHT22;10931;52.164;5.518;2023-02-28T03:11:18;16.10;58.60
21540;DHT22;10931;52.164;5.518;2023-02-28T03:21:36;16.10;58.60
21540;DHT22;10931;52.164;5.518;2023-02-28T03:24:27;16.10;58.60
21540;DHT22;10931;52.164;5.518;2023-02-28T03:27:03;16.10;58.60
21540;DHT22;10931;52.164;5.518;2023-02-28T03:29:42;16.10;58.60
21540;DHT22;10931;52.164;5.518;2023-02-28T03:32:19;16.10;58.60
21540;DHT22;10931;52.164;5.518;2023-02-28T03:35:30;16.00;58.60
21540;DHT22;10931;52.164;5.518;2023-02-28T03:38:11;16.00;59.20
21540;DHT22;10931;52.164;5.518;2023-02-28T03:40:54;16.00;58.60
21540;DHT22;10931;52.164;5.518;2023-02-28T03:43:26;16.00;58.60
21540;DHT22;10931;52.164;5.518;2023-02-28T03:45:57;16.00;58.60
21540;DHT22;10931;52.164;5.518;2023-02-28T03:48:48;16.00;58.60
21540;DHT22;10931;52.164;5.518;2023-02-28T03:51:18;16.00;58.60
21540;DHT22;10931;52.164;5.518;2023-02-28T03:53:57;16.00;58.60
21540;DHT22;10931;52.164;5.518;2023-02-28T03:59:32;16.00;59.20
21540;DHT22;10931;52.164;5.518;2023-02-28T04:02:00;16.00;58.60
21540;DHT22;10931;52.164;5.518;2023-02-28T04:04:28;15.90;58.60
21540;DHT22;10931;52.164;5.518;2023-02-28T04:07:09;15.90;58.60
21540;DHT22;10931;52.164;5.518;2023-02-28T04:09:36;15.90;58.60
21540;DHT22;10931;52.164;5.518;2023-02-28T04:12:02;15.90;58.60
21540;DHT22;10931;52.164;5.518;2023-02-28T04:14:28;15.90;58.60
21540;DHT22;10931;52.164;5.518;2023-02-28T04:16:56;15.90;58.60
21540;DHT22;10931;52.164;5.518;2023-02-28T04:19:22;15.90;58.60
21540;DHT22;10931;52.164;5.518;2023-02-28T04:21:52;15.90;58.60
21540;DHT22;10931;52.164;5.518;2023-02-28T04:24:20;15.90;58.60
21540;DHT22;10931;52.164;5.518;2023-02-28T04:26:49;15.90;58.60
21540;DHT22;10931;52.164;5.518;2023-02-28T04:29:23;15.90;58.70
21540;DHT22;10931;52.164;5.518;2023-02-28T04:31:52;15.90;58.60
21540;DHT22;10931;52.164;5.518;2023-02-28T04:34:25;15.90;58.70
21540;DHT22;10931;52.164;5.518;2023-02-28T04:36:51;15.90;58.70
21540;DHT22;10931;52.164;5.518;2023-02-28T04:39:23;15.90;58.70
21540;DHT22;10931;52.164;5.518;2023-02-28T04:41:50;15.90;58.70
21540;DHT22;10931;52.164;5.518;2023-02-28T04:44:16;15.90;58.70
21540;DHT22;10931;52.164;5.518;2023-02-28T04:46:43;15.90;58.70
21540;DHT22;10931;52.164;5.518;2023-02-28T04:49:11;15.90;58.70
21540;DHT22;10931;52.164;5.518;2023-02-28T04:51:37;15.90;58.70
21540;DHT22;10931;52.164;5.518;2023-02-28T04:54:10;15.90;58.70
21540;DHT22;10931;52.164;5.518;2023-02-28T04:56:35;15.90;58.80
21540;DHT22;10931;52.164;5.518;2023-02-28T04:59:01;15.90;58.70
21540;DHT22;10931;52.164;5.518;2023-02-28T05:01:30;15.90;58.70
21540;DHT22;10931;52.164;5.518;2023-02-28T05:03:57;15.90;58.70
21540;DHT22;10931;52.164;5.518;2023-02-28T05:06:25;15.90;58.80
21540;DHT22;10931;52.164;5.518;2023-02-28T05:08:52;15.90;58.70
21540;DHT22;10931;52.164;5.518;2023-02-28T05:11:27;15.90;58.70
21540;DHT22;10931;52.164;5.518;2023-02-28T05:14:02;15.90;58.70
21540;DHT22;10931;52.164;5.518;2023-02-28T05:16:28;15.80;58.70
21540;DHT22;10931;52.164;5.518;2023-02-28T05:18:58;15.80;58.70
21540;DHT22;10931;52.164;5.518;2023-02-28T05:21:54;15.90;58.70
21540;DHT22;10931;52.164;5.518;2023-02-28T05:24:20;15.80;58.70
21540;DHT22;10931;52.164;5.518;2023-02-28T05:26:50;15.80;58.70
21540;DHT22;10931;52.164;5.518;2023-02-28T05:29:17;15.80;58.70
21540;DHT22;10931;52.164;5.518;2023-02-28T05:31:45;15.80;58.70
21540;DHT22;10931;52.164;5.518;2023-02-28T05:34:11;15.80;58.70
21540;DHT22;10931;52.164;5.518;2023-02-28T05:36:38;15.80;58.70
21540;DHT22;10931;52.164;5.518;2023-02-28T05:39:06;15.80;59.30
21540;DHT22;10931;52.164;5.518;2023-02-28T05:41:32;15.80;58.70
21540;DHT22;10931;52.164;5.518;2023-02-28T05:43:58;15.80;58.80
21540;DHT22;10931;52.164;5.518;2023-02-28T05:46:27;15.80;58.70
21540;DHT22;10931;52.164;5.518;2023-02-28T05:48:56;15.80;58.70
21540;DHT22;10931;52.164;5.518;2023-02-28T05:51:24;15.70;58.60
21540;DHT22;10931;52.164;5.518;2023-02-28T05:53:52;15.70;58.60
21540;DHT22;10931;52.164;5.518;2023-02-28T05:56:20;15.70;58.70
21540;DHT22;10931;52.164;5.518;2023-02-28T05:58:46;15.70;58.60
21540;DHT22;10931;52.164;5.518;2023-02-28T06:01:35;15.80;58.70
21540;DHT22;10931;52.164;5.518;2023-02-28T06:04:02;15.70;58.70
21540;DHT22;10931;52.164;5.518;2023-02-28T06:06:28;15.70;58.60
21540;DHT22;10931;52.164;5.518;2023-02-28T06:08:55;15.80;58.70
21540;DHT22;10931;52.164;5.518;2023-02-28T06:11:21;15.70;58.70
21540;DHT22;10931;52.164;5.518;2023-02-28T06:13:54;15.70;58.60
21540;DHT22;10931;52.164;5.518;2023-02-28T06:16:20;15.70;58.70
21540;DHT22;10931;52.164;5.518;2023-02-28T06:18:48;15.70;58.70
21540;DHT22;10931;52.164;5.518;2023-02-28T06:21:14;15.70;58.70
21540;DHT22;10931;52.164;5.518;2023-02-28T06:23:40;15.70;58.60
21540;DHT22;10931;52.164;5.518;2023-02-28T06:26:06;15.70;58.60
21540;DHT22;10931;52.164;5.518;2023-02-28T06:28:34;15.70;58.60
21540;DHT22;10931;52.164;5.518;2023-02-28T06:31:06;15.70;58.70
21540;DHT22;10931;52.164;5.518;2023-02-28T06:33:32;15.70;58.70
21540;DHT22;10931;52.164;5.518;2023-02-28T06:35:57;15.70;58.70
21540;DHT22;10931;52.164;5.518;2023-02-28T06:38:23;15.70;58.70
21540;DHT22;10931;52.164;5.518;2023-02-28T06:41:15;15.70;58.70
21540;DHT22;10931;52.164;5.518;2023-02-28T06:43:42;15.70;58.70
21540;DHT22;10931;52.164;5.518;2023-02-28T06:46:10;15.60;58.60
21540;DHT22;10931;52.164;5.518;2023-02-28T06:48:36;15.60;58.60
21540;DHT22;10931;52.164;5.518;2023-02-28T06:51:19;15.60;58.70
21540;DHT22;10931;52.164;5.518;2023-02-28T06:56:38;15.60;58.70
21540;DHT22;10931;52.164;5.518;2023-02-28T06:59:04;15.60;58.70
21540;DHT22;10931;52.164;5.518;2023-02-28T07:01:33;15.70;58.70
21540;DHT22;10931;52.164;5.518;2023-02-28T07:03:59;15.60;58.70
21540;DHT22;10931;52.164;5.518;2023-02-28T07:06:27;15.60;58.70
21540;DHT22;10931;52.164;5.518;2023-02-28T07:08:54;15.60;58.60
21540;DHT22;10931;52.164;5.518;2023-02-28T07:11:26;15.60;58.60
21540;DHT22;10931;52.164;5.518;2023-02-28T07:13:53;15.60;58.60
21540;DHT22;10931;52.164;5.518;2023-02-28T07:16:19;15.60;58.60
21540;DHT22;10931;52.164;5.518;2023-02-28T07:18:45;15.60;58.60
21540;DHT22;10931;52.164;5.518;2023-02-28T07:21:11;15.60;58.60
21540;DHT22;10931;52.164;5.518;2023-02-28T07:23:40;15.60;58.60
21540;DHT22;10931;52.164;5.518;2023-02-28T07:26:15;15.60;58.60
21540;DHT22;10931;52.164;5.518;2023-02-28T07:28:44;15.60;58.60
21540;DHT22;10931;52.164;5.518;2023-02-28T07:31:11;15.60;58.60
21540;DHT22;10931;52.164;5.518;2023-02-28T07:33:38;15.50;58.60
21540;DHT22;10931;52.164;5.518;2023-02-28T07:36:11;15.60;58.60
21540;DHT22;10931;52.164;5.518;2023-02-28T07:38:43;15.50;58.60
21540;DHT22;10931;52.164;5.518;2023-02-28T07:41:12;15.50;58.60
21540;DHT22;10931;52.164;5.518;2023-02-28T07:43:38;15.50;58.60
21540;DHT22;10931;52.164;5.518;2023-02-28T07:46:06;15.50;58.60
21540;DHT22;10931;52.164;5.518;2023-02-28T07:48:32;15.50;58.60
21540;DHT22;10931;52.164;5.518;2023-02-28T07:50:59;15.50;58.60
21540;DHT22;10931;52.164;5.518;2023-02-28T07:53:26;15.50;58.60
21540;DHT22;10931;52.164;5.518;2023-02-28T07:55:55;15.50;58.60
21540;DHT22;10931;52.164;5.518;2023-02-28T07:58:24;15.50;58.60
21540;DHT22;10931;52.164;5.518;2023-02-28T08:00:53;15.50;58.60
21540;DHT22;10931;52.164;5.518;2023-02-28T08:03:19;15.50;58.60
21540;DHT22;10931;52.164;5.518;2023-02-28T08:05:46;15.50;59.20
21540;DHT22;10931;52.164;5.518;2023-02-28T08:08:13;15.50;58.60
21540;DHT22;10931;52.164;5.518;2023-02-28T08:10:42;15.50;58.60
21540;DHT22;10931;52.164;5.518;2023-02-28T08:13:08;15.40;58.50
21540;DHT22;10931;52.164;5.518;2023-02-28T08:15:34;15.40;58.60
21540;DHT22;10931;52.164;5.518;2023-02-28T08:18:00;15.40;58.60
21540;DHT22;10931;52.164;5.518;2023-02-28T08:20:28;15.40;58.60
21540;DHT22;10931;52.164;5.518;2023-02-28T08:22:56;15.40;58.60
21540;DHT22;10931;52.164;5.518;2023-02-28T08:25:21;15.40;58.60
21540;DHT22;10931;52.164;5.518;2023-02-28T08:27:47;15.40;58.60
21540;DHT22;10931;52.164;5.518;2023-02-28T08:30:22;15.40;58.60
21540;DHT22;10931;52.164;5.518;2023-02-28T08:41:27;15.40;58.60
21540;DHT22;10931;52.164;5.518;2023-02-28T08:43:53;15.40;58.60
21540;DHT22;10931;52.164;5.518;2023-02-28T08:46:34;15.40;58.60
21540;DHT22;10931;52.164;5.518;2023-02-28T08:49:12;15.40;58.60
21540;DHT22;10931;52.164;5.518;2023-02-28T08:52:12;15.30;58.60
21540;DHT22;10931;52.164;5.518;2023-02-28T08:57:58;15.40;58.70
21540;DHT22;10931;52.164;5.518;2023-02-28T09:00:29;15.30;58.60
21540;DHT22;10931;52.164;5.518;2023-02-28T09:02:55;15.30;58.60
21540;DHT22;10931;52.164;5.518;2023-02-28T09:05:25;15.30;58.60
21540;DHT22;10931;52.164;5.518;2023-02-28T09:07:54;15.30;58.70
21540;DHT22;10931;52.164;5.518;2023-02-28T09:10:20;15.40;58.70
21540;DHT22;10931;52.164;5.518;2023-02-28T09:12:46;15.40;58.70
21540;DHT22;10931;52.164;5.518;2023-02-28T09:17:57;15.30;58.70
21540;DHT22;10931;52.164;5.518;2023-02-28T09:20:29;15.30;58.70
21540;DHT22;10931;52.164;5.518;2023-02-28T09:22:55;15.30;58.70
21540;DHT22;10931;52.164;5.518;2023-02-28T09:25:23;15.40;58.70
21540;DHT22;10931;52.164;5.518;2023-02-28T09:27:48;15.30;58.70
21540;DHT22;10931;52.164;5.518;2023-02-28T09:30:14;15.30;58.70
21540;DHT22;10931;52.164;5.518;2023-02-28T09:32:42;15.30;58.70
21540;DHT22;10931;52.164;5.518;2023-02-28T09:35:17;15.40;58.70
21540;DHT22;10931;52.164;5.518;2023-02-28T09:37:44;15.30;58.70
21540;DHT22;10931;52.164;5.518;2023-02-28T09:40:12;15.40;58.70
21540;DHT22;10931;52.164;5.518;2023-02-28T09:49:02;15.30;58.70
21540;DHT22;10931;52.164;5.518;2023-02-28T09:54:20;15.30;58.70
21540;DHT22;10931;52.164;5.518;2023-02-28T10:00:37;15.30;58.70
21540;DHT22;10931;52.164;5.518;2023-02-28T10:06:41;15.30;58.70
21540;DHT22;10931;52.164;5.518;2023-02-28T10:09:23;15.30;58.70
21540;DHT22;10931;52.164;5.518;2023-02-28T10:12:08;15.30;58.70
21540;DHT22;10931;52.164;5.518;2023-02-28T10:17:38;15.30;58.70
21540;DHT22;10931;52.164;5.518;2023-02-28T10:20:35;15.30;58.70
21540;DHT22;10931;52.164;5.518;2023-02-28T10:23:46;15.30;58.70
21540;DHT22;10931;52.164;5.518;2023-02-28T10:26:24;15.40;58.70
21540;DHT22;10931;52.164;5.518;2023-02-28T10:29:03;15.40;58.70
21540;DHT22;10931;52.164;5.518;2023-02-28T10:31:43;15.30;58.70
21540;DHT22;10931;52.164;5.518;2023-02-28T10:55:32;15.40;58.60
21540;DHT22;10931;52.164;5.518;2023-02-28T11:01:45;15.40;58.60
21540;DHT22;10931;52.164;5.518;2023-02-28T11:07:02;15.40;58.60
21540;DHT22;10931;52.164;5.518;2023-02-28T11:09:39;15.40;58.50
21540;DHT22;10931;52.164;5.518;2023-02-28T11:12:30;15.50;58.60
21540;DHT22;10931;52.164;5.518;2023-02-28T11:15:30;15.50;58.60
21540;DHT22;10931;52.164;5.518;2023-02-28T11:38:44;15.60;58.50
21540;DHT22;10931;52.164;5.518;2023-02-28T11:47:19;15.60;58.50
21540;DHT22;10931;52.164;5.518;2023-02-28T11:50:13;15.60;58.40
21540;DHT22;10931;52.164;5.518;2023-02-28T11:55:38;15.70;58.50
21540;DHT22;10931;52.164;5.518;2023-02-28T12:01:15;15.70;58.40
21540;DHT22;10931;52.164;5.518;2023-02-28T12:12:54;15.70;58.40
21540;DHT22;10931;52.164;5.518;2023-02-28T12:18:24;15.80;58.40
21540;DHT22;10931;52.164;5.518;2023-02-28T12:21:13;15.80;58.40
21540;DHT22;10931;52.164;5.518;2023-02-28T12:26:42;15.90;58.40
21540;DHT22;10931;52.164;5.518;2023-02-28T12:32:16;15.90;58.50
21540;DHT22;10931;52.164;5.518;2023-02-28T12:35:04;16.10;58.60
21540;DHT22;10931;52.164;5.518;2023-02-28T12:40:18;16.30;58.90
21540;DHT22;10931;52.164;5.518;2023-02-28T12:42:59;16.40;58.90
21540;DHT22;10931;52.164;5.518;2023-02-28T12:50:33;16.80;59.00
21540;DHT22;10931;52.164;5.518;2023-02-28T12:53:03;16.90;59.00
21540;DHT22;10931;52.164;5.518;2023-02-28T12:55:50;17.00;59.00
21540;DHT22;10931;52.164;5.518;2023-02-28T13:01:28;17.30;59.00
21540;DHT22;10931;52.164;5.518;2023-02-28T13:07:00;17.60;59.00
21540;DHT22;10931;52.164;5.518;2023-02-28T13:09:33;17.70;58.90
21540;DHT22;10931;52.164;5.518;2023-02-28T13:11:59;17.80;58.80
21540;DHT22;10931;52.164;5.518;2023-02-28T13:14:35;17.90;58.80
21540;DHT22;10931;52.164;5.518;2023-02-28T13:22:42;18.20;58.70
21540;DHT22;10931;52.164;5.518;2023-02-28T13:28:07;18.50;58.70
21540;DHT22;10931;52.164;5.518;2023-02-28T13:33:32;18.60;58.50
21540;DHT22;10931;52.164;5.518;2023-02-28T13:38:50;18.80;58.40
21540;DHT22;10931;52.164;5.518;2023-02-28T13:44:22;18.90;58.30
21540;DHT22;10931;52.164;5.518;2023-02-28T13:49:48;19.10;58.20
21540;DHT22;10931;52.164;5.518;2023-02-28T13:56:03;19.30;58.10
21540;DHT22;10931;52.164;5.518;2023-02-28T13:58:53;19.40;58.10
21540;DHT22;10931;52.164;5.518;2023-02-28T14:01:42;19.40;58.00
21540;DHT22;10931;52.164;5.518;2023-02-28T14:07:19;19.60;57.90
21540;DHT22;10931;52.164;5.518;2023-02-28T14:10:01;19.60;57.80
21540;DHT22;10931;52.164;5.518;2023-02-28T14:13:00;19.70;57.80
21540;DHT22;10931;52.164;5.518;2023-02-28T14:15:47;19.80;57.70
21540;DHT22;10931;52.164;5.518;2023-02-28T14:18:35;19.90;57.70
21540;DHT22;10931;52.164;5.518;2023-02-28T14:21:23;19.90;57.50
21540;DHT22;10931;52.164;5.518;2023-02-28T14:24:16;20.00;57.50
21540;DHT22;10931;52.164;5.518;2023-02-28T14:33:01;20.20;57.30
21540;DHT22;10931;52.164;5.518;2023-02-28T14:38:34;20.30;57.10
21540;DHT22;10931;52.164;5.518;2023-02-28T14:41:37;20.30;57.20
21540;DHT22;10931;52.164;5.518;2023-02-28T14:47:42;20.50;57.00
21540;DHT22;10931;52.164;5.518;2023-02-28T14:50:19;20.60;56.90
21540;DHT22;10931;52.164;5.518;2023-02-28T14:52:45;20.50;56.70
21540;DHT22;10931;52.164;5.518;2023-02-28T14:55:26;20.60;56.80
21540;DHT22;10931;52.164;5.518;2023-02-28T14:58:02;20.60;56.70
21540;DHT22;10931;52.164;5.518;2023-02-28T15:00:40;20.60;56.60
21540;DHT22;10931;52.164;5.518;2023-02-28T15:03:30;20.60;56.50
21540;DHT22;10931;52.164;5.518;2023-02-28T15:05:58;20.50;56.40
21540;DHT22;10931;52.164;5.518;2023-02-28T15:08:27;20.50;56.30
21540;DHT22;10931;52.164;5.518;2023-02-28T15:19:31;20.50;56.20
21540;DHT22;10931;52.164;5.518;2023-02-28T15:22:17;20.50;56.20
21540;DHT22;10931;52.164;5.518;2023-02-28T15:25:02;20.40;56.10
21540;DHT22;10931;52.164;5.518;2023-02-28T15:27:32;20.40;56.10
21540;DHT22;10931;52.164;5.518;2023-02-28T15:30:19;20.40;56.10
21540;DHT22;10931;52.164;5.518;2023-02-28T15:33:27;20.40;56.10
21540;DHT22;10931;52.164;5.518;2023-02-28T15:36:13;20.40;56.10
21540;DHT22;10931;52.164;5.518;2023-02-28T15:38:43;20.40;56.00
21540;DHT22;10931;52.164;5.518;2023-02-28T15:41:30;20.40;56.00
21540;DHT22;10931;52.164;5.518;2023-02-28T15:44:15;20.30;56.00
21540;DHT22;10931;52.164;5.518;2023-02-28T15:46:54;20.30;56.00
21540;DHT22;10931;52.164;5.518;2023-02-28T15:49:25;20.30;56.00
21540;DHT22;10931;52.164;5.518;2023-02-28T15:51:56;20.30;56.00
21540;DHT22;10931;52.164;5.518;2023-02-28T15:54:32;20.30;56.00
21540;DHT22;10931;52.164;5.518;2023-02-28T15:57:06;20.30;56.00
21540;DHT22;10931;52.164;5.518;2023-02-28T15:59:36;20.30;56.00
21540;DHT22;10931;52.164;5.518;2023-02-28T16:02:14;20.20;56.00
21540;DHT22;10931;52.164;5.518;2023-02-28T16:07:38;20.20;56.00
21540;DHT22;10931;52.164;5.518;2023-02-28T16:10:05;20.20;56.00
21540;DHT22;10931;52.164;5.518;2023-02-28T16:12:36;20.20;56.00
21540;DHT22;10931;52.164;5.518;2023-02-28T16:15:20;20.20;55.90
21540;DHT22;10931;52.164;5.518;2023-02-28T16:17:59;20.10;55.90
21540;DHT22;10931;52.164;5.518;2023-02-28T16:20:50;20.10;55.90
21540;DHT22;10931;52.164;5.518;2023-02-28T16:23:24;20.10;55.90
21540;DHT22;10931;52.164;5.518;2023-02-28T16:25:55;20.20;56.00
21540;DHT22;10931;52.164;5.518;2023-02-28T16:28:26;20.10;55.90
21540;DHT22;10931;52.164;5.518;2023-02-28T16:30:55;20.10;55.90
21540;DHT22;10931;52.164;5.518;2023-02-28T16:33:21;20.10;55.90
21540;DHT22;10931;52.164;5.518;2023-02-28T16:35:50;20.10;55.90
21540;DHT22;10931;52.164;5.518;2023-02-28T16:38:16;20.10;55.90
21540;DHT22;10931;52.164;5.518;2023-02-28T16:40:42;20.10;55.90
21540;DHT22;10931;52.164;5.518;2023-02-28T16:43:15;20.10;55.90
21540;DHT22;10931;52.164;5.518;2023-02-28T16:45:41;20.00;55.90
21540;DHT22;10931;52.164;5.518;2023-02-28T16:48:45;20.10;55.90
21540;DHT22;10931;52.164;5.518;2023-02-28T17:43:36;19.60;55.90
21540;DHT22;10931;52.164;5.518;2023-02-28T17:46:02;19.60;55.90
21540;DHT22;10931;52.164;5.518;2023-02-28T17:48:31;19.60;55.90
21540;DHT22;10931;52.164;5.518;2023-02-28T17:51:05;19.60;55.90
21540;DHT22;10931;52.164;5.518;2023-02-28T17:53:33;19.50;55.90
21540;DHT22;10931;52.164;5.518;2023-02-28T17:55:59;19.50;55.90
21540;DHT22;10931;52.164;5.518;2023-02-28T17:58:25;19.50;55.90
21540;DHT22;10931;52.164;5.518;2023-02-28T18:00:51;19.40;55.90
21540;DHT22;10931;52.164;5.518;2023-02-28T18:03:20;19.40;56.00
21540;DHT22;10931;52.164;5.518;2023-02-28T18:05:48;19.40;56.00
21540;DHT22;10931;52.164;5.518;2023-02-28T18:08:16;19.40;56.00
21540;DHT22;10931;52.164;5.518;2023-02-28T18:10:57;19.40;56.00
21540;DHT22;10931;52.164;5.518;2023-02-28T18:13:25;19.40;56.10
21540;DHT22;10931;52.164;5.518;2023-02-28T18:16:09;19.30;56.00
21540;DHT22;10931;52.164;5.518;2023-02-28T18:18:37;19.30;56.10
21540;DHT22;10931;52.164;5.518;2023-02-28T18:21:04;19.30;56.20
21540;DHT22;10931;52.164;5.518;2023-02-28T18:23:36;19.20;56.10
21540;DHT22;10931;52.164;5.518;2023-02-28T18:29:40;19.20;56.10
21540;DHT22;10931;52.164;5.518;2023-02-28T18:32:17;19.20;56.10
21540;DHT22;10931;52.164;5.518;2023-02-28T18:34:48;19.10;56.10
21540;DHT22;10931;52.164;5.518;2023-02-28T18:37:19;19.10;56.10
21540;DHT22;10931;52.164;5.518;2023-02-28T18:39:58;19.10;56.20
21540;DHT22;10931;52.164;5.518;2023-02-28T18:42:26;19.10;56.20
21540;DHT22;10931;52.164;5.518;2023-02-28T18:44:52;19.00;56.20
21540;DHT22;10931;52.164;5.518;2023-02-28T18:47:18;19.00;56.20
21540;DHT22;10931;52.164;5.518;2023-02-28T18:49:51;19.00;56.20
21540;DHT22;10931;52.164;5.518;2023-02-28T18:52:20;19.00;56.20
21540;DHT22;10931;52.164;5.518;2023-02-28T18:55:06;19.00;56.20
21540;DHT22;10931;52.164;5.518;2023-02-28T18:57:42;18.90;56.20
21540;DHT22;10931;52.164;5.518;2023-02-28T19:00:40;18.90;56.30
21540;DHT22;10931;52.164;5.518;2023-02-28T19:03:09;18.90;56.30
21540;DHT22;10931;52.164;5.518;2023-02-28T19:05:43;18.90;56.30
21540;DHT22;10931;52.164;5.518;2023-02-28T19:08:10;18.90;56.30
21540;DHT22;10931;52.164;5.518;2023-02-28T19:14:08;18.80;56.30
21540;DHT22;10931;52.164;5.518;2023-02-28T19:16:52;18.80;56.40
21540;DHT22;10931;52.164;5.518;2023-02-28T19:19:27;18.70;56.40
21540;DHT22;10931;52.164;5.518;2023-02-28T19:21:58;18.70;56.40
21540;DHT22;10931;52.164;5.518;2023-02-28T19:24:31;18.70;56.40
21540;DHT22;10931;52.164;5.518;2023-02-28T19:27:03;18.70;56.50
21540;DHT22;10931;52.164;5.518;2023-02-28T19:29:35;18.70;56.50
21540;DHT22;10931;52.164;5.518;2023-02-28T19:32:36;18.70;56.50
21540;DHT22;10931;52.164;5.518;2023-02-28T19:35:10;18.60;56.50
21540;DHT22;10931;52.164;5.518;2023-02-28T19:37:45;18.60;56.50
21540;DHT22;10931;52.164;5.518;2023-02-28T19:40:13;18.60;56.50
21540;DHT22;10931;52.164;5.518;2023-02-28T19:42:47;18.60;56.60
21540;DHT22;10931;52.164;5.518;2023-02-28T20:14:40;18.30;56.80
21540;DHT22;10931;52.164;5.518;2023-02-28T20:17:08;18.30;56.80
21540;DHT22;10931;52.164;5.518;2023-02-28T20:23:10;18.30;56.80
21540;DHT22;10931;52.164;5.518;2023-02-28T20:25:47;18.30;56.80
21540;DHT22;10931;52.164;5.518;2023-02-28T20:28:26;18.20;56.80
21540;DHT22;10931;52.164;5.518;2023-02-28T20:31:11;18.20;56.80
21540;DHT22;10931;52.164;5.518;2023-02-28T20:33:46;18.20;56.90
21540;DHT22;10931;52.164;5.518;2023-02-28T20:36:12;18.20;56.90
21540;DHT22;10931;52.164;5.518;2023-02-28T20:38:51;18.20;56.90
21540;DHT22;10931;52.164;5.518;2023-02-28T20:41:17;18.20;56.90
21540;DHT22;10931;52.164;5.518;2023-02-28T20:43:54;18.20;56.90
21540;DHT22;10931;52.164;5.518;2023-02-28T20:49:19;18.10;56.90
21540;DHT22;10931;52.164;5.518;2023-02-28T20:55:06;18.10;56.90
21540;DHT22;10931;52.164;5.518;2023-02-28T21:00:57;18.10;57.00
21540;DHT22;10931;52.164;5.518;2023-02-28T22:06:52;17.70;57.10
21540;DHT22;10931;52.164;5.518;2023-02-28T22:09:24;17.60;57.10
21540;DHT22;10931;52.164;5.518;2023-02-28T22:11:53;17.60;57.10
21540;DHT22;10931;52.164;5.518;2023-02-28T22:14:21;17.60;57.10
21540;DHT22;10931;52.164;5.518;2023-02-28T22:16:47;17.60;57.10
21540;DHT22;10931;52.164;5.518;2023-02-28T22:19:14;17.60;57.10